sensor_id;sensor_type;location;lat;lon;timestamp;pressure;altitude;pressure_sealevel;temperature;humidity
54870;BME280;40756;-37.950;145.008;2023-03-31T00:01:39;101137.20;;;16.36;50.03
54870;BME280;40756;-37.950;145.008;2023-03-31T00:04:09;101126.68;;;17.57;48.88
54870;BME280;40756;-37.950;145.008;2023-03-31T00:06:41;101136.14;;;16.86;48.17
54870;BME280;40756;-37.950;145.008;2023-03-31T00:09:13;101134.79;;;17.53;48.03
54870;BME280;40756;-37.950;145.008;2023-03-31T00:11:43;101140.37;;;16.46;49.89
54870;BME280;40756;-37.950;145.008;2023-03-31T00:14:12;101138.26;;;17.54;48.90
54870;BME280;40756;-37.950;145.008;2023-03-31T00:16:42;101139.39;;;16.47;50.47
54870;BME280;40756;-37.950;145.008;2023-03-31T00:19:13;101139.28;;;16.74;49.39
54870;BME280;40756;-37.950;145.008;2023-03-31T00:21:43;101138.28;;;17.54;47.84
54870;BME280;40756;-37.950;145.008;2023-03-31T00:24:13;101140.20;;;17.01;48.67
54870;BME280;40756;-37.950;145.008;2023-03-31T00:26:44;101148.90;;;16.26;49.33
54870;BME280;40756;-37.950;145.008;2023-03-31T00:29:14;101150.29;;;16.68;49.67
54870;BME280;40756;-37.950;145.008;2023-03-31T00:31:43;101148.08;;;17.02;49.56
54870;BME280;40756;-37.950;145.008;2023-03-31T00:34:13;101146.54;;;17.73;48.30
54870;BME280;40756;-37.950;145.008;2023-03-31T00:36:42;101144.28;;;16.81;49.07
54870;BME280;40756;-37.950;145.008;2023-03-31T00:39:12;101144.64;;;17.55;48.09
54870;BME280;40756;-37.950;145.008;2023-03-31T00:41:43;101140.63;;;17.94;48.35
54870;BME280;40756;-37.950;145.008;2023-03-31T00:44:15;101134.98;;;17.69;47.65
54870;BME280;40756;-37.950;145.008;2023-03-31T00:46:49;101138.13;;;17.79;48.19
54870;BME280;40756;-37.950;145.008;2023-03-31T00:49:25;101137.42;;;16.80;48.33
54870;BME280;40756;-37.950;145.008;2023-03-31T00:52:01;101135.98;;;17.53;48.67
54870;BME280;40756;-37.950;145.008;2023-03-31T00:54:33;101135.01;;;18.20;46.87
54870;BME280;40756;-37.950;145.008;2023-03-31T00:57:05;101133.73;;;18.36;45.94
54870;BME280;40756;-37.950;145.008;2023-03-31T00:59:39;101132.93;;;18.49;46.45
54870;BME280;40756;-37.950;145.008;2023-03-31T01:02:10;101124.66;;;18.82;45.81
54870;BME280;40756;-37.950;145.008;2023-03-31T01:04:47;101125.98;;;18.65;45.99
54870;BME280;40756;-37.950;145.008;2023-03-31T01:07:24;101128.94;;;17.48;47.64
54870;BME280;40756;-37.950;145.008;2023-03-31T01:09:58;101125.03;;;17.69;48.42
54870;BME280;40756;-37.950;145.008;2023-03-31T01:12:28;101119.18;;;18.97;46.84
54870;BME280;40756;-37.950;145.008;2023-03-31T01:14:59;101120.36;;;17.90;48.79
54870;BME280;40756;-37.950;145.008;2023-03-31T01:17:29;101119.33;;;17.96;47.72
54870;BME280;40756;-37.950;145.008;2023-03-31T01:20:06;101115.64;;;18.50;45.41
54870;BME280;40756;-37.950;145.008;2023-03-31T01:23:10;101113.90;;;18.39;45.63
54870;BME280;40756;-37.950;145.008;2023-03-31T01:26:44;101114.73;;;18.95;44.55
54870;BME280;40756;-37.950;145.008;2023-03-31T01:29:38;101114.01;;;19.38;42.38
54870;BME280;40756;-37.950;145.008;2023-03-31T01:32:36;101110.69;;;18.41;44.07
54870;BME280;40756;-37.950;145.008;2023-03-31T01:35:32;101109.81;;;19.03;44.39
54870;BME280;40756;-37.950;145.008;2023-03-31T01:39:40;101106.40;;;18.52;44.63
54870;BME280;40756;-37.950;145.008;2023-03-31T01:42:12;101104.44;;;18.60;44.86
54870;BME280;40756;-37.950;145.008;2023-03-31T01:44:48;101105.90;;;18.11;45.22
54870;BME280;40756;-37.950;145.008;2023-03-31T01:47:25;101104.18;;;19.27;45.42
54870;BME280;40756;-37.950;145.008;2023-03-31T01:50:02;101105.12;;;18.97;45.64
54870;BME280;40756;-37.950;145.008;2023-03-31T01:52:37;101104.65;;;19.01;44.07
54870;BME280;40756;-37.950;145.008;2023-03-31T01:55:15;101105.42;;;18.09;46.52
54870;BME280;40756;-37.950;145.008;2023-03-31T01:57:49;101104.32;;;17.71;46.39
54870;BME280;40756;-37.950;145.008;2023-03-31T02:00:26;101105.72;;;17.74;46.04
54870;BME280;40756;-37.950;145.008;2023-03-31T02:03:00;101099.27;;;18.00;46.34
54870;BME280;40756;-37.950;145.008;2023-03-31T02:05:36;101096.84;;;19.60;44.15
54870;BME280;40756;-37.950;145.008;2023-03-31T02:08:11;101094.08;;;20.10;42.48
54870;BME280;40756;-37.950;145.008;2023-03-31T02:10:45;101092.57;;;19.33;42.03
54870;BME280;40756;-37.950;145.008;2023-03-31T02:13:17;101096.81;;;20.17;41.42
54870;BME280;40756;-37.950;145.008;2023-03-31T02:15:53;101094.17;;;19.67;42.17
54870;BME280;40756;-37.950;145.008;2023-03-31T02:18:27;101094.71;;;20.96;40.96
54870;BME280;40756;-37.950;145.008;2023-03-31T02:21:06;101090.54;;;20.34;39.82
54870;BME280;40756;-37.950;145.008;2023-03-31T02:23:37;101085.29;;;20.15;40.36
54870;BME280;40756;-37.950;145.008;2023-03-31T02:26:11;101084.55;;;19.31;40.98
54870;BME280;40756;-37.950;145.008;2023-03-31T02:28:41;101076.56;;;20.49;39.68
54870;BME280;40756;-37.950;145.008;2023-03-31T02:31:20;101076.13;;;20.92;39.82
54870;BME280;40756;-37.950;145.008;2023-03-31T02:33:52;101076.31;;;20.08;39.30
54870;BME280;40756;-37.950;145.008;2023-03-31T02:36:22;101076.64;;;20.88;39.40
54870;BME280;40756;-37.950;145.008;2023-03-31T02:38:55;101080.57;;;20.30;39.91
54870;BME280;40756;-37.950;145.008;2023-03-31T02:41:28;101074.10;;;20.58;38.55
54870;BME280;40756;-37.950;145.008;2023-03-31T02:43:57;101073.04;;;20.77;38.41
54870;BME280;40756;-37.950;145.008;2023-03-31T02:46:27;101066.53;;;21.66;37.59
54870;BME280;40756;-37.950;145.008;2023-03-31T02:49:01;101067.39;;;21.10;37.33
54870;BME280;40756;-37.950;145.008;2023-03-31T02:52:17;101067.33;;;20.80;38.67
54870;BME280;40756;-37.950;145.008;2023-03-31T02:55:37;101067.11;;;20.03;38.17
54870;BME280;40756;-37.950;145.008;2023-03-31T03:00:43;101064.64;;;21.10;38.04
54870;BME280;40756;-37.950;145.008;2023-03-31T03:03:31;101063.14;;;20.36;37.27
54870;BME280;40756;-37.950;145.008;2023-03-31T03:06:16;101057.87;;;20.74;36.93
54870;BME280;40756;-37.950;145.008;2023-03-31T03:09:00;101061.04;;;19.86;39.10
54870;BME280;40756;-37.950;145.008;2023-03-31T03:11:41;101061.98;;;19.68;40.00
54870;BME280;40756;-37.950;145.008;2023-03-31T03:14:21;101059.90;;;20.80;38.96
54870;BME280;40756;-37.950;145.008;2023-03-31T03:17:00;101057.67;;;21.26;38.59
54870;BME280;40756;-37.950;145.008;2023-03-31T03:19:30;101058.27;;;20.20;39.67
54870;BME280;40756;-37.950;145.008;2023-03-31T03:22:00;101060.61;;;20.19;40.51
54870;BME280;40756;-37.950;145.008;2023-03-31T03:24:30;101063.91;;;18.76;41.72
54870;BME280;40756;-37.950;145.008;2023-03-31T03:27:00;101061.40;;;18.63;42.37
54870;BME280;40756;-37.950;145.008;2023-03-31T03:29:30;101060.34;;;19.02;42.51
54870;BME280;40756;-37.950;145.008;2023-03-31T03:32:00;101062.39;;;18.06;49.67
54870;BME280;40756;-37.950;145.008;2023-03-31T03:34:29;101053.17;;;18.77;49.88
54870;BME280;40756;-37.950;145.008;2023-03-31T03:36:59;101052.21;;;18.55;49.18
54870;BME280;40756;-37.950;145.008;2023-03-31T03:39:28;101049.16;;;20.03;46.76
54870;BME280;40756;-37.950;145.008;2023-03-31T03:41:57;101054.74;;;20.18;45.94
54870;BME280;40756;-37.950;145.008;2023-03-31T03:44:27;101047.74;;;20.52;44.49
54870;BME280;40756;-37.950;145.008;2023-03-31T03:46:57;101053.86;;;20.53;43.86
54870;BME280;40756;-37.950;145.008;2023-03-31T03:49:26;101051.92;;;19.19;45.96
54870;BME280;40756;-37.950;145.008;2023-03-31T03:51:55;101052.55;;;19.26;46.76
54870;BME280;40756;-37.950;145.008;2023-03-31T03:54:25;101056.17;;;19.84;46.51
54870;BME280;40756;-37.950;145.008;2023-03-31T03:56:54;101058.98;;;17.57;50.06
54870;BME280;40756;-37.950;145.008;2023-03-31T03:59:24;101056.44;;;18.58;49.14
54870;BME280;40756;-37.950;145.008;2023-03-31T04:01:53;101051.73;;;19.31;47.97
54870;BME280;40756;-37.950;145.008;2023-03-31T04:04:23;101050.33;;;18.90;48.82
54870;BME280;40756;-37.950;145.008;2023-03-31T04:06:53;101047.63;;;18.35;49.41
54870;BME280;40756;-37.950;145.008;2023-03-31T04:09:22;101054.58;;;18.44;49.17
54870;BME280;40756;-37.950;145.008;2023-03-31T04:11:52;101055.73;;;18.76;49.22
54870;BME280;40756;-37.950;145.008;2023-03-31T04:14:21;101052.26;;;18.13;48.68
54870;BME280;40756;-37.950;145.008;2023-03-31T04:16:51;101054.12;;;18.04;49.23
54870;BME280;40756;-37.950;145.008;2023-03-31T04:19:22;101054.01;;;17.90;50.62
54870;BME280;40756;-37.950;145.008;2023-03-31T04:21:52;101062.55;;;17.27;52.14
54870;BME280;40756;-37.950;145.008;2023-03-31T04:24:22;101065.92;;;17.89;52.31
54870;BME280;40756;-37.950;145.008;2023-03-31T04:26:53;101063.21;;;17.74;51.51
54870;BME280;40756;-37.950;145.008;2023-03-31T04:29:23;101068.39;;;18.22;50.79
54870;BME280;40756;-37.950;145.008;2023-03-31T04:31:54;101070.08;;;18.12;50.83
54870;BME280;40756;-37.950;145.008;2023-03-31T04:34:25;101078.16;;;17.58;50.36
54870;BME280;40756;-37.950;145.008;2023-03-31T04:36:54;101083.17;;;16.94;52.52
54870;BME280;40756;-37.950;145.008;2023-03-31T04:39:24;101084.50;;;17.14;51.82
54870;BME280;40756;-37.950;145.008;2023-03-31T04:41:54;101086.26;;;16.71;52.24
54870;BME280;40756;-37.950;145.008;2023-03-31T04:44:23;101082.51;;;16.82;51.90
54870;BME280;40756;-37.950;145.008;2023-03-31T04:46:53;101086.14;;;17.69;50.46
54870;BME280;40756;-37.950;145.008;2023-03-31T04:49:22;101087.72;;;17.51;50.68
54870;BME280;40756;-37.950;145.008;2023-03-31T04:51:51;101091.29;;;17.68;50.91
54870;BME280;40756;-37.950;145.008;2023-03-31T04:54:21;101098.38;;;17.28;52.32
54870;BME280;40756;-37.950;145.008;2023-03-31T04:56:50;101098.64;;;16.89;54.02
54870;BME280;40756;-37.950;145.008;2023-03-31T04:59:20;101105.82;;;16.59;55.43
54870;BME280;40756;-37.950;145.008;2023-03-31T05:01:50;101104.16;;;16.60;54.53
54870;BME280;40756;-37.950;145.008;2023-03-31T05:04:19;101109.52;;;16.39;55.21
54870;BME280;40756;-37.950;145.008;2023-03-31T05:06:49;101112.55;;;16.77;54.52
54870;BME280;40756;-37.950;145.008;2023-03-31T05:09:19;101114.38;;;16.93;53.47
54870;BME280;40756;-37.950;145.008;2023-03-31T05:11:49;101116.06;;;15.71;55.00
54870;BME280;40756;-37.950;145.008;2023-03-31T05:14:18;101117.21;;;16.30;55.62
54870;BME280;40756;-37.950;145.008;2023-03-31T05:16:48;101122.80;;;16.43;55.96
54870;BME280;40756;-37.950;145.008;2023-03-31T05:19:17;101123.18;;;15.86;57.67
54870;BME280;40756;-37.950;145.008;2023-03-31T05:21:47;101124.89;;;15.59;60.45
54870;BME280;40756;-37.950;145.008;2023-03-31T05:24:16;101129.88;;;16.10;59.08
54870;BME280;40756;-37.950;145.008;2023-03-31T05:26:46;101128.87;;;16.29;59.70
54870;BME280;40756;-37.950;145.008;2023-03-31T05:29:16;101130.35;;;15.92;59.95
54870;BME280;40756;-37.950;145.008;2023-03-31T05:31:46;101128.12;;;15.66;60.93
54870;BME280;40756;-37.950;145.008;2023-03-31T05:34:16;101139.02;;;15.95;60.96
54870;BME280;40756;-37.950;145.008;2023-03-31T05:36:45;101135.70;;;16.39;59.46
54870;BME280;40756;-37.950;145.008;2023-03-31T05:39:15;101139.47;;;15.75;58.74
54870;BME280;40756;-37.950;145.008;2023-03-31T05:41:44;101142.27;;;16.09;58.06
54870;BME280;40756;-37.950;145.008;2023-03-31T05:44:14;101145.45;;;16.24;57.17
54870;BME280;40756;-37.950;145.008;2023-03-31T05:46:43;101143.72;;;16.65;55.29
54870;BME280;40756;-37.950;145.008;2023-03-31T05:49:13;101149.43;;;16.16;55.40
54870;BME280;40756;-37.950;145.008;2023-03-31T05:51:43;101155.12;;;15.81;56.17
54870;BME280;40756;-37.950;145.008;2023-03-31T05:54:12;101155.78;;;15.94;56.33
54870;BME280;40756;-37.950;145.008;2023-03-31T05:56:42;101151.45;;;15.83;56.77
54870;BME280;40756;-37.950;145.008;2023-03-31T05:59:11;101153.05;;;15.13;58.69
54870;BME280;40756;-37.950;145.008;2023-03-31T06:01:41;101153.86;;;15.50;59.62
54870;BME280;40756;-37.950;145.008;2023-03-31T06:04:11;101156.84;;;15.28;62.05
54870;BME280;40756;-37.950;145.008;2023-03-31T06:06:40;101157.61;;;15.09;62.26
54870;BME280;40756;-37.950;145.008;2023-03-31T06:09:10;101160.63;;;14.80;62.09
54870;BME280;40756;-37.950;145.008;2023-03-31T06:11:40;101165.04;;;14.63;62.97
54870;BME280;40756;-37.950;145.008;2023-03-31T06:14:10;101170.05;;;14.80;62.60
54870;BME280;40756;-37.950;145.008;2023-03-31T06:16:39;101167.87;;;14.61;63.11
54870;BME280;40756;-37.950;145.008;2023-03-31T06:19:09;101167.41;;;13.61;65.32
54870;BME280;40756;-37.950;145.008;2023-03-31T06:21:39;101174.56;;;14.67;62.75
54870;BME280;40756;-37.950;145.008;2023-03-31T06:24:09;101177.57;;;14.19;63.26
54870;BME280;40756;-37.950;145.008;2023-03-31T06:26:39;101173.33;;;14.32;63.83
54870;BME280;40756;-37.950;145.008;2023-03-31T06:29:08;101180.69;;;14.23;63.52
54870;BME280;40756;-37.950;145.008;2023-03-31T06:31:39;101184.42;;;14.30;63.81
54870;BME280;40756;-37.950;145.008;2023-03-31T06:34:08;101188.98;;;14.33;64.05
54870;BME280;40756;-37.950;145.008;2023-03-31T06:36:38;101192.63;;;14.07;64.77
54870;BME280;40756;-37.950;145.008;2023-03-31T06:39:08;101197.05;;;14.22;64.29
54870;BME280;40756;-37.950;145.008;2023-03-31T06:41:37;101200.43;;;14.47;63.03
54870;BME280;40756;-37.950;145.008;2023-03-31T06:44:07;101205.19;;;13.53;63.66
54870;BME280;40756;-37.950;145.008;2023-03-31T06:46:37;101204.98;;;12.87;64.29
54870;BME280;40756;-37.950;145.008;2023-03-31T06:49:06;101207.35;;;13.55;63.60
54870;BME280;40756;-37.950;145.008;2023-03-31T06:51:36;101211.71;;;13.81;63.64
54870;BME280;40756;-37.950;145.008;2023-03-31T06:54:06;101214.40;;;14.34;62.34
54870;BME280;40756;-37.950;145.008;2023-03-31T06:56:36;101212.93;;;14.29;62.50
54870;BME280;40756;-37.950;145.008;2023-03-31T06:59:05;101227.17;;;12.76;65.24
54870;BME280;40756;-37.950;145.008;2023-03-31T07:01:35;101228.00;;;13.68;65.03
54870;BME280;40756;-37.950;145.008;2023-03-31T07:04:05;101225.62;;;13.29;65.39
54870;BME280;40756;-37.950;145.008;2023-03-31T07:06:35;101223.30;;;14.40;63.04
54870;BME280;40756;-37.950;145.008;2023-03-31T07:09:04;101231.69;;;13.79;62.33
54870;BME280;40756;-37.950;145.008;2023-03-31T07:11:33;101230.36;;;13.88;60.31
54870;BME280;40756;-37.950;145.008;2023-03-31T07:14:04;101236.84;;;13.93;60.14
54870;BME280;40756;-37.950;145.008;2023-03-31T07:16:34;101236.15;;;14.32;58.98
54870;BME280;40756;-37.950;145.008;2023-03-31T07:19:03;101235.78;;;14.42;58.84
54870;BME280;40756;-37.950;145.008;2023-03-31T07:21:34;101233.38;;;15.00;57.74
54870;BME280;40756;-37.950;145.008;2023-03-31T07:24:04;101235.46;;;14.08;57.54
54870;BME280;40756;-37.950;145.008;2023-03-31T07:26:34;101240.41;;;15.15;54.89
54870;BME280;40756;-37.950;145.008;2023-03-31T07:29:03;101236.75;;;14.76;54.73
54870;BME280;40756;-37.950;145.008;2023-03-31T07:31:33;101238.65;;;14.36;54.13
54870;BME280;40756;-37.950;145.008;2023-03-31T07:34:04;101250.32;;;14.75;53.42
54870;BME280;40756;-37.950;145.008;2023-03-31T07:36:34;101249.40;;;14.96;52.22
54870;BME280;40756;-37.950;145.008;2023-03-31T07:39:05;101251.63;;;15.34;52.53
54870;BME280;40756;-37.950;145.008;2023-03-31T07:41:35;101256.31;;;15.02;53.33
54870;BME280;40756;-37.950;145.008;2023-03-31T07:44:04;101265.26;;;14.04;52.50
54870;BME280;40756;-37.950;145.008;2023-03-31T07:46:34;101267.60;;;14.06;51.46
54870;BME280;40756;-37.950;145.008;2023-03-31T07:49:04;101271.22;;;13.92;50.48
54870;BME280;40756;-37.950;145.008;2023-03-31T07:51:33;101273.03;;;13.80;50.79
54870;BME280;40756;-37.950;145.008;2023-03-31T07:54:03;101271.36;;;14.29;50.71
54870;BME280;40756;-37.950;145.008;2023-03-31T07:56:33;101273.48;;;14.59;50.46
54870;BME280;40756;-37.950;145.008;2023-03-31T07:59:02;101274.85;;;15.21;49.92
54870;BME280;40756;-37.950;145.008;2023-03-31T08:01:32;101278.36;;;14.49;50.50
54870;BME280;40756;-37.950;145.008;2023-03-31T08:04:01;101290.10;;;13.91;50.29
54870;BME280;40756;-37.950;145.008;2023-03-31T08:06:30;101291.75;;;14.22;49.62
54870;BME280;40756;-37.950;145.008;2023-03-31T08:09:00;101294.30;;;14.59;50.05
54870;BME280;40756;-37.950;145.008;2023-03-31T08:11:30;101295.09;;;15.26;50.08
54870;BME280;40756;-37.950;145.008;2023-03-31T08:14:00;101299.76;;;14.76;48.88
54870;BME280;40756;-37.950;145.008;2023-03-31T08:16:30;101296.65;;;15.45;48.76
54870;BME280;40756;-37.950;145.008;2023-03-31T08:19:00;101303.84;;;14.80;48.17
54870;BME280;40756;-37.950;145.008;2023-03-31T08:21:30;101311.03;;;14.77;49.37
54870;BME280;40756;-37.950;145.008;2023-03-31T08:23:59;101315.67;;;15.99;47.22
54870;BME280;40756;-37.950;145.008;2023-03-31T08:26:29;101318.22;;;15.32;48.15
54870;BME280;40756;-37.950;145.008;2023-03-31T08:28:59;101325.05;;;15.42;48.30
54870;BME280;40756;-37.950;145.008;2023-03-31T08:31:28;101326.44;;;14.24;49.01
54870;BME280;40756;-37.950;145.008;2023-03-31T08:33:58;101329.66;;;14.84;48.30
54870;BME280;40756;-37.950;145.008;2023-03-31T08:36:29;101335.71;;;14.34;48.20
54870;BME280;40756;-37.950;145.008;2023-03-31T08:38:58;101337.56;;;14.47;47.94
54870;BME280;40756;-37.950;145.008;2023-03-31T08:41:34;101337.54;;;14.81;47.60
54870;BME280;40756;-37.950;145.008;2023-03-31T08:44:12;101338.46;;;14.56;46.26
54870;BME280;40756;-37.950;145.008;2023-03-31T08:46:44;101342.58;;;14.45;46.74
54870;BME280;40756;-37.950;145.008;2023-03-31T08:49:16;101341.87;;;15.28;45.69
54870;BME280;40756;-37.950;145.008;2023-03-31T08:51:49;101349.24;;;15.35;44.39
54870;BME280;40756;-37.950;145.008;2023-03-31T08:54:29;101352.67;;;16.02;43.42
54870;BME280;40756;-37.950;145.008;2023-03-31T08:56:59;101358.74;;;15.54;44.44
54870;BME280;40756;-37.950;145.008;2023-03-31T08:59:32;101361.06;;;15.90;43.69
54870;BME280;40756;-37.950;145.008;2023-03-31T09:02:08;101367.55;;;15.82;42.88
54870;BME280;40756;-37.950;145.008;2023-03-31T09:04:57;101372.12;;;15.44;43.01
54870;BME280;40756;-37.950;145.008;2023-03-31T09:07:34;101377.16;;;14.21;44.89
54870;BME280;40756;-37.950;145.008;2023-03-31T09:10:24;101382.81;;;15.80;43.15
54870;BME280;40756;-37.950;145.008;2023-03-31T09:13:00;101385.15;;;15.44;43.43
54870;BME280;40756;-37.950;145.008;2023-03-31T09:15:38;101391.36;;;15.32;44.09
54870;BME280;40756;-37.950;145.008;2023-03-31T09:18:23;101403.78;;;14.28;45.96
54870;BME280;40756;-37.950;145.008;2023-03-31T09:21:01;101403.97;;;14.18;45.75
54870;BME280;40756;-37.950;145.008;2023-03-31T09:23:37;101406.17;;;15.40;44.63
54870;BME280;40756;-37.950;145.008;2023-03-31T09:26:17;101407.27;;;15.00;43.78
54870;BME280;40756;-37.950;145.008;2023-03-31T09:28:49;101409.09;;;15.12;44.22
54870;BME280;40756;-37.950;145.008;2023-03-31T09:31:21;101417.38;;;15.58;44.22
54870;BME280;40756;-37.950;145.008;2023-03-31T09:33:54;101420.49;;;15.15;44.19
54870;BME280;40756;-37.950;145.008;2023-03-31T09:36:28;101422.15;;;14.89;44.80
54870;BME280;40756;-37.950;145.008;2023-03-31T09:38:57;101423.31;;;15.29;44.23
54870;BME280;40756;-37.950;145.008;2023-03-31T09:41:27;101432.07;;;14.76;44.60
54870;BME280;40756;-37.950;145.008;2023-03-31T09:43:56;101426.39;;;16.32;43.71
54870;BME280;40756;-37.950;145.008;2023-03-31T09:46:30;101431.01;;;15.25;44.47
54870;BME280;40756;-37.950;145.008;2023-03-31T09:49:03;101444.32;;;15.03;44.69
54870;BME280;40756;-37.950;145.008;2023-03-31T09:51:36;101445.28;;;14.89;45.32
54870;BME280;40756;-37.950;145.008;2023-03-31T09:54:18;101449.52;;;15.23;44.81
54870;BME280;40756;-37.950;145.008;2023-03-31T09:56:52;101449.36;;;15.14;44.69
54870;BME280;40756;-37.950;145.008;2023-03-31T09:59:23;101454.99;;;14.21;45.60
54870;BME280;40756;-37.950;145.008;2023-03-31T10:01:59;101453.08;;;15.26;44.15
54870;BME280;40756;-37.950;145.008;2023-03-31T10:04:32;101450.78;;;14.80;45.41
54870;BME280;40756;-37.950;145.008;2023-03-31T10:07:05;101453.21;;;15.34;45.13
54870;BME280;40756;-37.950;145.008;2023-03-31T10:09:38;101456.68;;;14.99;46.06
54870;BME280;40756;-37.950;145.008;2023-03-31T10:12:15;101459.25;;;15.45;45.10
54870;BME280;40756;-37.950;145.008;2023-03-31T10:14:48;101467.35;;;15.50;44.77
54870;BME280;40756;-37.950;145.008;2023-03-31T10:17:19;101472.21;;;15.17;44.72
54870;BME280;40756;-37.950;145.008;2023-03-31T10:19:52;101478.18;;;15.02;45.89
54870;BME280;40756;-37.950;145.008;2023-03-31T10:22:31;101477.52;;;14.80;44.76
54870;BME280;40756;-37.950;145.008;2023-03-31T10:25:14;101479.97;;;15.24;44.37
54870;BME280;40756;-37.950;145.008;2023-03-31T10:27:48;101480.81;;;15.37;44.07
54870;BME280;40756;-37.950;145.008;2023-03-31T10:30:24;101478.72;;;15.49;44.36
54870;BME280;40756;-37.950;145.008;2023-03-31T10:32:54;101473.60;;;16.02;44.34
54870;BME280;40756;-37.950;145.008;2023-03-31T10:35:28;101480.11;;;15.97;44.48
54870;BME280;40756;-37.950;145.008;2023-03-31T10:38:02;101482.43;;;15.70;45.43
54870;BME280;40756;-37.950;145.008;2023-03-31T10:40:33;101490.13;;;15.03;45.83
54870;BME280;40756;-37.950;145.008;2023-03-31T10:43:08;101489.23;;;14.89;45.75
54870;BME280;40756;-37.950;145.008;2023-03-31T10:45:47;101489.46;;;16.02;44.42
54870;BME280;40756;-37.950;145.008;2023-03-31T10:48:23;101496.19;;;14.48;46.23
54870;BME280;40756;-37.950;145.008;2023-03-31T10:50:54;101489.90;;;15.54;44.77
54870;BME280;40756;-37.950;145.008;2023-03-31T10:53:26;101498.93;;;14.75;45.84
54870;BME280;40756;-37.950;145.008;2023-03-31T10:56:05;101498.79;;;15.43;45.08
54870;BME280;40756;-37.950;145.008;2023-03-31T10:58:53;101496.01;;;15.96;43.76
54870;BME280;40756;-37.950;145.008;2023-03-31T11:01:32;101501.63;;;15.18;44.15
54870;BME280;40756;-37.950;145.008;2023-03-31T11:04:23;101497.56;;;15.79;42.41
54870;BME280;40756;-37.950;145.008;2023-03-31T11:07:00;101500.26;;;15.65;41.91
54870;BME280;40756;-37.950;145.008;2023-03-31T11:09:41;101500.24;;;15.75;41.56
54870;BME280;40756;-37.950;145.008;2023-03-31T11:12:20;101502.22;;;15.66;41.71
54870;BME280;40756;-37.950;145.008;2023-03-31T11:15:04;101513.80;;;15.41;42.83
54870;BME280;40756;-37.950;145.008;2023-03-31T11:17:50;101523.08;;;15.45;44.50
54870;BME280;40756;-37.950;145.008;2023-03-31T11:20:30;101524.56;;;15.04;44.39
54870;BME280;40756;-37.950;145.008;2023-03-31T11:23:09;101527.39;;;15.21;46.67
54870;BME280;40756;-37.950;145.008;2023-03-31T11:25:49;101519.10;;;15.62;46.89
54870;BME280;40756;-37.950;145.008;2023-03-31T11:28:33;101523.60;;;15.02;46.53
54870;BME280;40756;-37.950;145.008;2023-03-31T11:31:18;101519.56;;;15.35;45.72
54870;BME280;40756;-37.950;145.008;2023-03-31T11:34:02;101524.89;;;14.87;45.86
54870;BME280;40756;-37.950;145.008;2023-03-31T11:36:45;101528.35;;;14.57;45.96
54870;BME280;40756;-37.950;145.008;2023-03-31T11:39:30;101530.91;;;14.74;45.17
54870;BME280;40756;-37.950;145.008;2023-03-31T11:42:09;101533.81;;;14.51;46.18
54870;BME280;40756;-37.950;145.008;2023-03-31T11:44:43;101528.81;;;14.31;46.53
54870;BME280;40756;-37.950;145.008;2023-03-31T11:47:18;101533.26;;;15.31;44.91
54870;BME280;40756;-37.950;145.008;2023-03-31T11:49:53;101534.14;;;15.01;45.37
54870;BME280;40756;-37.950;145.008;2023-03-31T11:52:27;101533.02;;;15.28;44.84
54870;BME280;40756;-37.950;145.008;2023-03-31T11:55:00;101526.97;;;15.83;43.68
54870;BME280;40756;-37.950;145.008;2023-03-31T11:57:32;101530.05;;;14.88;45.03
54870;BME280;40756;-37.950;145.008;2023-03-31T12:00:08;101535.60;;;14.97;45.41
54870;BME280;40756;-37.950;145.008;2023-03-31T12:02:45;101533.45;;;15.48;44.45
54870;BME280;40756;-37.950;145.008;2023-03-31T12:05:18;101542.78;;;15.01;44.90
54870;BME280;40756;-37.950;145.008;2023-03-31T12:07:54;101542.64;;;15.25;42.36
54870;BME280;40756;-37.950;145.008;2023-03-31T12:10:35;101543.44;;;15.20;42.56
54870;BME280;40756;-37.950;145.008;2023-03-31T12:13:22;101554.00;;;14.50;43.60
54870;BME280;40756;-37.950;145.008;2023-03-31T12:16:00;101547.09;;;14.63;43.61
54870;BME280;40756;-37.950;145.008;2023-03-31T12:18:34;101549.74;;;14.61;43.79
54870;BME280;40756;-37.950;145.008;2023-03-31T12:21:07;101548.62;;;15.07;42.96
54870;BME280;40756;-37.950;145.008;2023-03-31T12:23:42;101553.21;;;15.25;42.65
54870;BME280;40756;-37.950;145.008;2023-03-31T12:26:25;101552.91;;;15.25;41.88
54870;BME280;40756;-37.950;145.008;2023-03-31T12:29:00;101557.98;;;14.85;44.38
54870;BME280;40756;-37.950;145.008;2023-03-31T12:31:32;101557.93;;;14.97;44.17
54870;BME280;40756;-37.950;145.008;2023-03-31T12:34:09;101554.03;;;14.89;43.05
54870;BME280;40756;-37.950;145.008;2023-03-31T12:36:50;101553.70;;;14.28;43.22
54870;BME280;40756;-37.950;145.008;2023-03-31T12:39:32;101554.40;;;15.05;42.50
54870;BME280;40756;-37.950;145.008;2023-03-31T12:42:24;101552.53;;;15.43;41.86
54870;BME280;40756;-37.950;145.008;2023-03-31T12:45:05;101553.27;;;15.64;41.01
54870;BME280;40756;-37.950;145.008;2023-03-31T12:47:51;101558.94;;;15.17;41.64
54870;BME280;40756;-37.950;145.008;2023-03-31T12:50:37;101554.83;;;15.62;40.91
54870;BME280;40756;-37.950;145.008;2023-03-31T12:53:15;101556.81;;;15.61;40.46
54870;BME280;40756;-37.950;145.008;2023-03-31T12:55:50;101555.99;;;14.94;40.73
54870;BME280;40756;-37.950;145.008;2023-03-31T12:58:55;101555.76;;;14.73;41.06